Time;durP1;ratioP1;P1;durP2;ratioP2;P2;SDS_P1;SDS_P2;PMS_P1;PMS_P2;Temp;Humidity;BMP_temperature;BMP_pressure;BME280_temperature;BME280_humidity;BME280_pressure;Samples;Min_cycle;Max_cycle;Signal;HPM_P1;HPM_P2
2022/01/08 00:01:26;;;;;;;14.65;7.78;;;1.00;99.90;;;;;;4988348;28;20046;-76
2022/01/08 00:03:54;;;;;;;18.58;7.72;;;0.90;99.90;;;;;;4988090;28;20046;-78
2022/01/08 00:06:22;;;;;;;;;;;1.00;99.90;;;;;;4987135;28;20486;-80
2022/01/08 00:08:50;;;;;;;16.27;6.88;;;1.00;99.90;;;;;;4987503;28;19922;-82
2022/01/08 00:11:20;;;;;;;16.88;7.55;;;0.90;99.90;;;;;;4987856;28;20058;-78
2022/01/08 00:13:48;;;;;;;18.48;7.72;;;0.90;99.90;;;;;;4986644;28;20054;-76
2022/01/08 00:16:16;;;;;;;18.35;7.15;;;0.80;99.90;;;;;;4987615;28;20050;-77
2022/01/08 00:18:44;;;;;;;;;;;0.80;99.90;;;;;;4971018;28;20407;-79
2022/01/08 00:21:12;;;;;;;17.92;6.75;;;0.80;99.90;;;;;;4988057;28;19922;-80
2022/01/08 00:23:39;;;;;;;19.27;8.45;;;0.80;99.90;;;;;;4970400;28;20050;-77
2022/01/08 00:26:07;;;;;;;22.17;8.05;;;0.80;99.90;;;;;;4986202;28;20058;-80
2022/01/08 00:28:35;;;;;;;20.13;8.43;;;0.80;99.90;;;;;;4986178;28;20057;-79
2022/01/08 00:31:04;;;;;;;18.00;8.15;;;0.90;99.90;;;;;;4987331;28;20049;-74
2022/01/08 00:33:31;;;;;;;19.13;8.52;;;0.90;99.90;;;;;;4986165;28;20065;-78
2022/01/08 00:35:59;;;;;;;15.45;7.68;;;0.90;99.90;;;;;;4986453;28;20053;-79
2022/01/08 00:38:27;;;;;;;14.60;7.90;;;0.90;99.90;;;;;;4985876;28;20069;-77
2022/01/08 00:40:55;;;;;;;19.13;8.20;;;0.90;99.90;;;;;;4987661;28;20046;-80
2022/01/08 00:43:22;;;;;;;18.65;8.13;;;0.90;99.90;;;;;;4986300;28;20057;-79
2022/01/08 00:45:51;;;;;;;14.68;7.93;;;0.90;99.90;;;;;;4969768;28;20058;-76
2022/01/08 00:48:19;;;;;;;18.10;7.78;;;0.90;99.90;;;;;;4987294;28;20050;-77
2022/01/08 00:50:48;;;;;;;17.60;8.07;;;0.90;99.90;;;;;;4987339;28;20035;-75
2022/01/08 00:53:16;;;;;;;18.58;8.25;;;0.90;99.90;;;;;;4985628;28;20054;-74
2022/01/08 00:55:43;;;;;;;19.45;7.97;;;1.00;99.90;;;;;;4985820;28;20050;-74
2022/01/08 00:58:11;;;;;;;14.82;7.40;;;0.90;99.90;;;;;;4986132;28;20089;-74
2022/01/08 01:00:41;;;;;;;19.00;7.85;;;0.90;99.90;;;;;;4953638;28;20061;-74
2022/01/08 01:03:09;;;;;;;19.38;8.45;;;1.00;99.90;;;;;;4986964;28;20061;-73
2022/01/08 01:05:37;;;;;;;18.33;8.05;;;1.00;99.90;;;;;;4985649;28;20079;-74
2022/01/08 01:08:06;;;;;;;18.95;7.88;;;1.00;99.90;;;;;;4985634;28;20057;-74
2022/01/08 01:10:33;;;;;;;19.38;8.07;;;0.90;99.90;;;;;;4985200;28;20057;-75
2022/01/08 01:13:01;;;;;;;19.05;7.55;;;0.90;99.90;;;;;;4986892;28;20519;-76
2022/01/08 01:15:29;;;;;;;16.13;8.10;;;0.90;99.90;;;;;;4986336;28;20054;-78
2022/01/08 01:17:57;;;;;;;17.02;8.50;;;0.90;99.90;;;;;;4987052;28;20046;-75
2022/01/08 01:20:25;;;;;;;19.73;8.10;;;0.90;99.90;;;;;;4985459;28;20050;-76
2022/01/08 01:23:06;;;;;;;18.42;7.57;;;1.00;99.90;;;;;;4985709;28;20046;-78
2022/01/08 01:25:39;;;;;;;16.83;7.85;;;1.00;99.90;;;;;;4987268;28;20065;-78
2022/01/08 01:47:10;;;;;;;17.20;6.75;;;1.40;99.90;;;;;;4985352;28;20492;-77
2022/01/08 01:49:42;;;;;;;16.27;6.68;;;1.30;99.90;;;;;;4985284;28;20145;-74
2022/01/08 01:52:12;;;;;;;13.80;6.32;;;1.40;99.90;;;;;;4986482;28;20042;-74
2022/01/08 01:54:40;;;;;;;15.40;6.72;;;1.40;99.90;;;;;;4985158;28;20047;-75
2022/01/08 01:57:12;;;;;;;17.65;6.93;;;1.40;99.90;;;;;;4985028;28;20047;-74
2022/01/08 01:59:41;;;;;;;13.13;6.10;;;1.50;99.90;;;;;;4986505;28;20094;-74
2022/01/08 02:02:09;;;;;;;15.52;6.00;;;1.50;99.90;;;;;;4986408;28;20051;-74
2022/01/08 02:04:37;;;;;;;18.50;6.18;;;1.50;99.90;;;;;;4988774;28;20171;-77
2022/01/08 02:07:08;;;;;;;12.95;6.25;;;1.60;99.90;;;;;;4988610;28;20051;-74
2022/01/08 02:09:39;;;;;;;16.33;5.93;;;1.60;99.90;;;;;;4989066;28;20057;-74
2022/01/08 02:12:12;;;;;;;15.23;5.68;;;1.60;99.90;;;;;;4988930;28;20053;-73
2022/01/08 02:14:40;;;;;;;13.07;5.15;;;1.60;99.90;;;;;;4970857;28;20514;-74
2022/01/08 02:17:09;;;;;;;10.80;4.70;;;1.70;99.90;;;;;;4969462;28;20047;-74
2022/01/08 02:19:38;;;;;;;11.98;4.85;;;1.70;99.90;;;;;;4985666;28;20059;-75
2022/01/08 02:22:10;;;;;;;13.18;4.70;;;1.80;99.90;;;;;;4970647;28;20058;-77
2022/01/08 02:24:38;;;;;;;11.50;4.95;;;1.80;99.90;;;;;;4969059;28;20057;-74
2022/01/08 02:27:06;;;;;;;;;;;1.80;99.90;;;;;;4970036;28;20063;-75
2022/01/08 02:29:33;;;;;;;11.93;4.53;;;1.80;99.90;;;;;;4970440;28;19933;-77
2022/01/08 02:32:04;;;;;;;;;;;1.90;99.90;;;;;;4978862;28;20049;-76
2022/01/08 02:34:33;;;;;;;13.13;4.38;;;1.90;99.90;;;;;;4989284;28;19922;-73
2022/01/08 02:37:02;;;;;;;11.68;4.20;;;1.90;99.90;;;;;;4989630;28;20050;-78
2022/01/08 02:39:34;;;;;;;8.70;3.63;;;1.90;99.90;;;;;;4988227;28;20049;-76
2022/01/08 02:42:02;;;;;;;9.80;3.85;;;1.90;99.90;;;;;;4988210;28;20062;-75
2022/01/08 02:44:30;;;;;;;11.45;3.30;;;2.00;99.90;;;;;;4988521;28;20095;-78
2022/01/08 02:46:58;;;;;;;15.00;3.67;;;2.00;99.90;;;;;;4988405;28;20462;-79
2022/01/08 02:49:25;;;;;;;12.73;3.35;;;2.10;99.90;;;;;;4988536;28;20050;-78
2022/01/08 02:51:53;;;;;;;15.35;3.88;;;2.20;99.90;;;;;;4988913;28;20062;-79
2022/01/08 02:54:21;;;;;;;9.90;3.60;;;2.20;99.90;;;;;;4988745;28;20506;-76
2022/01/08 02:56:49;;;;;;;14.23;3.63;;;2.30;99.90;;;;;;4989923;28;20574;-75
2022/01/08 02:59:18;;;;;;;14.57;3.38;;;2.30;99.90;;;;;;4989679;28;20058;-75
2022/01/08 03:01:46;;;;;;;11.25;3.53;;;2.30;99.90;;;;;;4989576;28;20051;-77
2022/01/08 03:04:14;;;;;;;;;;;2.30;99.90;;;;;;4989179;28;20050;-77
2022/01/08 03:06:42;;;;;;;;;;;2.40;99.90;;;;;;4988801;28;19922;-77
2022/01/08 03:09:09;;;;;;;15.68;3.00;;;2.40;99.90;;;;;;4988630;28;20212;-73
2022/01/08 03:11:38;;;;;;;12.27;3.38;;;2.40;99.90;;;;;;4989386;28;20459;-74
2022/01/08 03:14:06;;;;;;;10.32;3.05;;;2.40;99.90;;;;;;4987644;28;20415;-75
2022/01/08 03:16:34;;;;;;;11.95;3.40;;;2.40;99.90;;;;;;4989224;28;20042;-78
2022/01/08 03:19:10;;;;;;;;;;;2.40;99.90;;;;;;4988400;28;20089;-74
2022/01/08 03:21:44;;;;;;;14.80;2.97;;;2.50;99.90;;;;;;5020998;28;20077;-77
2022/01/08 03:24:17;;;;;;;11.20;3.22;;;2.50;99.90;;;;;;4987721;28;20065;-74
2022/01/08 03:26:44;;;;;;;11.82;2.92;;;2.50;99.90;;;;;;4987920;28;20411;-78
2022/01/08 03:29:12;;;;;;;13.75;3.20;;;2.50;99.90;;;;;;4988373;28;20061;-75
2022/01/08 03:31:40;;;;;;;8.40;2.85;;;2.50;99.90;;;;;;4987665;28;20360;-76
2022/01/08 03:34:07;;;;;;;10.90;3.10;;;2.50;99.90;;;;;;4987809;28;20054;-73
2022/01/08 03:36:35;;;;;;;12.50;2.90;;;2.50;99.90;;;;;;4987707;28;20490;-75
2022/01/08 03:39:03;;;;;;;12.52;2.88;;;2.50;99.90;;;;;;4988920;28;20054;-76
2022/01/08 03:41:31;;;;;;;15.13;2.92;;;2.50;99.90;;;;;;4989199;28;20050;-73
2022/01/08 03:43:59;;;;;;;11.23;2.78;;;2.60;99.90;;;;;;4987403;28;20058;-74
2022/01/08 03:46:29;;;;;;;13.77;2.97;;;2.50;99.90;;;;;;4989233;28;20042;-73
2022/01/08 03:51:31;;;;;;;10.07;2.47;;;2.60;99.90;;;;;;4989186;28;20053;-75
2022/01/08 03:53:59;;;;;;;14.15;2.92;;;2.60;99.90;;;;;;4988405;28;20100;-77
2022/01/08 03:56:27;;;;;;;12.30;2.78;;;2.60;99.90;;;;;;4987556;28;20054;-74
2022/01/08 03:58:55;;;;;;;9.65;2.53;;;2.70;99.90;;;;;;4988675;28;20046;-74
2022/01/08 04:01:23;;;;;;;13.88;2.90;;;2.70;99.90;;;;;;4987654;28;20423;-74
2022/01/08 04:03:50;;;;;;;11.85;2.60;;;2.80;99.90;;;;;;4986452;28;20038;-75
2022/01/08 04:06:18;;;;;;;11.63;2.90;;;2.80;99.90;;;;;;4986913;28;20058;-73
2022/01/08 04:08:46;;;;;;;10.05;2.55;;;2.90;99.90;;;;;;5003407;28;20050;-75
2022/01/08 04:11:14;;;;;;;13.23;3.05;;;2.90;99.90;;;;;;4987889;28;20053;-75
2022/01/08 04:13:42;;;;;;;16.20;2.67;;;3.00;99.90;;;;;;4988368;28;20057;-74
2022/01/08 04:16:17;;;;;;;16.75;2.85;;;3.00;99.90;;;;;;4988149;28;20049;-75
2022/01/08 04:18:46;;;;;;;9.75;2.63;;;3.00;99.90;;;;;;4988390;28;20057;-79
2022/01/08 04:23:44;;;;;;;13.63;2.83;;;3.10;99.90;;;;;;5001765;28;20057;-78
2022/01/08 04:26:12;;;;;;;12.13;2.67;;;3.10;99.90;;;;;;5007359;28;20050;-80
2022/01/08 04:28:40;;;;;;;11.60;3.00;;;3.20;99.90;;;;;;5006226;28;20053;-78
2022/01/08 04:31:08;;;;;;;12.93;3.75;;;3.20;99.90;;;;;;5006182;28;20596;-79
2022/01/08 04:33:35;;;;;;;7.55;3.75;;;3.20;99.90;;;;;;4997362;28;20482;-79
2022/01/08 04:36:03;;;;;;;9.77;3.88;;;3.10;99.90;;;;;;4987988;28;20061;-77
2022/01/08 04:38:32;;;;;;;13.65;3.90;;;3.30;99.90;;;;;;4987651;28;20057;-77
2022/01/08 04:41:00;;;;;;;14.35;3.95;;;3.20;99.90;;;;;;4986286;28;20054;-74
2022/01/08 04:43:29;;;;;;;;;;;3.30;99.90;;;;;;4987242;28;20061;-74
2022/01/08 04:45:56;;;;;;;14.27;4.00;;;3.30;99.90;;;;;;4986185;28;19933;-76
2022/01/08 04:48:24;;;;;;;14.63;3.95;;;3.30;99.90;;;;;;4985869;28;20061;-76
2022/01/08 04:50:52;;;;;;;12.00;3.83;;;3.30;99.90;;;;;;4987780;28;20050;-74
2022/01/08 04:53:20;;;;;;;15.07;3.70;;;3.20;99.90;;;;;;4985753;28;20042;-74
2022/01/08 04:55:47;;;;;;;13.77;3.97;;;3.40;99.90;;;;;;4998741;28;20586;-75
2022/01/08 04:58:15;;;;;;;13.32;4.13;;;3.50;99.90;;;;;;4978529;28;20050;-74
2022/01/08 05:00:43;;;;;;;11.73;3.83;;;3.50;99.90;;;;;;4985707;28;20050;-76
2022/01/08 05:03:11;;;;;;;13.30;3.70;;;3.50;99.90;;;;;;4985863;28;20054;-73
2022/01/08 05:05:39;;;;;;;10.98;3.92;;;3.50;99.90;;;;;;4986345;28;20522;-74
2022/01/08 05:08:07;;;;;;;11.15;4.20;;;3.50;99.90;;;;;;4985745;28;20495;-76
2022/01/08 05:10:35;;;;;;;13.35;3.88;;;3.50;99.90;;;;;;4987582;28;20050;-73
2022/01/08 05:13:05;;;;;;;14.82;4.10;;;3.60;99.90;;;;;;4987751;28;20373;-76
2022/01/08 05:15:34;;;;;;;11.95;3.65;;;3.60;99.90;;;;;;4986099;28;20455;-77
2022/01/08 05:18:04;;;;;;;15.82;4.13;;;3.60;99.90;;;;;;4986213;28;20746;-77
2022/01/08 05:20:35;;;;;;;14.38;4.10;;;3.60;99.90;;;;;;4987596;28;20053;-76
2022/01/08 05:23:04;;;;;;;17.30;4.15;;;3.70;99.90;;;;;;4985786;28;20835;-75
2022/01/08 05:25:32;;;;;;;14.82;3.70;;;3.70;99.90;;;;;;4987273;28;20545;-76
2022/01/08 05:28:01;;;;;;;15.38;3.55;;;3.80;99.90;;;;;;4985894;28;20050;-75
2022/01/08 05:30:29;;;;;;;;;;;3.80;99.90;;;;;;4987504;28;20770;-79
2022/01/08 05:32:56;;;;;;;;;;;3.90;99.90;;;;;;4985944;28;19922;-80
2022/01/08 05:35:26;;;;;;;10.75;2.30;;;3.90;99.90;;;;;;4985394;28;19933;-82
2022/01/08 05:37:55;;;;;;;12.95;2.60;;;4.00;99.90;;;;;;4986500;28;20058;-82
2022/01/08 05:40:23;;;;;;;12.55;2.65;;;4.10;99.90;;;;;;4985078;28;20049;-81
2022/01/08 05:42:51;;;;;;;9.35;2.67;;;4.10;99.90;;;;;;4965912;28;20042;-76
2022/01/08 05:45:18;;;;;;;12.30;2.47;;;4.10;99.90;;;;;;4967459;28;20722;-74
2022/01/08 05:47:46;;;;;;;12.93;2.85;;;4.20;99.90;;;;;;4965819;28;20047;-76
2022/01/08 05:50:14;;;;;;;16.38;2.80;;;4.40;99.90;;;;;;4967081;28;20403;-78
2022/01/08 05:52:43;;;;;;;8.77;2.30;;;4.40;99.90;;;;;;4965154;28;20051;-79
2022/01/08 05:55:11;;;;;;;9.95;2.70;;;4.40;99.90;;;;;;4966961;28;20107;-76
2022/01/08 05:57:39;;;;;;;8.63;2.35;;;4.50;99.90;;;;;;4966673;28;20078;-78
2022/01/08 06:00:08;;;;;;;14.73;2.63;;;4.50;99.90;;;;;;4965220;28;20066;-79
2022/01/08 06:02:37;;;;;;;17.75;2.92;;;4.60;99.90;;;;;;4979621;28;20066;-79
2022/01/08 06:05:07;;;;;;;7.63;2.38;;;4.70;99.90;;;;;;4985008;28;20057;-79
2022/01/08 06:07:35;;;;;;;12.55;2.65;;;4.70;99.90;;;;;;4986177;28;20057;-75
2022/01/08 06:10:03;;;;;;;12.38;2.80;;;4.80;99.90;;;;;;4985815;28;20046;-79
2022/01/08 06:12:31;;;;;;;12.43;2.60;;;4.90;99.90;;;;;;4986100;28;20057;-77
2022/01/08 06:14:59;;;;;;;14.02;2.88;;;4.90;99.90;;;;;;4984665;28;20082;-74
2022/01/08 06:17:27;;;;;;;16.45;2.90;;;4.90;99.90;;;;;;4986218;28;20050;-79
2022/01/08 06:19:55;;;;;;;9.95;2.45;;;4.90;99.90;;;;;;4985185;28;20077;-76
2022/01/08 06:22:24;;;;;;;13.32;3.25;;;5.00;99.90;;;;;;4986173;28;20058;-80
2022/01/08 06:24:52;;;;;;;14.27;3.08;;;5.00;99.90;;;;;;4986594;28;20081;-78
2022/01/08 06:27:20;;;;;;;12.70;3.00;;;5.00;99.90;;;;;;4986250;28;20050;-79
2022/01/08 06:29:47;;;;;;;16.40;2.90;;;5.00;99.90;;;;;;4986307;28;20051;-79
2022/01/08 06:32:16;;;;;;;19.83;3.20;;;5.00;99.90;;;;;;4983306;28;20046;-75
2022/01/08 06:34:44;;;;;;;13.18;3.20;;;5.00;99.90;;;;;;4975425;28;20062;-76
2022/01/08 06:37:12;;;;;;;18.35;3.90;;;5.00;99.90;;;;;;4966989;28;20066;-77
2022/01/08 06:39:39;;;;;;;14.52;3.00;;;5.00;99.90;;;;;;4966934;28;20062;-77
2022/01/08 06:42:07;;;;;;;15.75;3.22;;;5.00;99.90;;;;;;4965338;28;20060;-75
2022/01/08 06:44:35;;;;;;;16.02;3.78;;;5.00;99.90;;;;;;4949387;28;20730;-76
2022/01/08 06:47:03;;;;;;;13.50;2.85;;;5.00;99.90;;;;;;4966760;28;20055;-78
2022/01/08 06:49:31;;;;;;;18.40;3.80;;;5.00;99.90;;;;;;4968893;28;20058;-74
2022/01/08 06:52:01;;;;;;;23.00;3.85;;;5.00;99.90;;;;;;4970787;28;20047;-74
2022/01/08 06:54:29;;;;;;;17.65;3.97;;;5.10;99.90;;;;;;4970109;28;20054;-76
2022/01/08 06:56:57;;;;;;;19.23;3.95;;;5.10;99.90;;;;;;4970277;28;20051;-77
2022/01/08 06:59:25;;;;;;;25.05;4.20;;;5.20;99.90;;;;;;4985072;28;20050;-77
2022/01/08 07:01:53;;;;;;;17.40;3.47;;;5.10;99.90;;;;;;4970194;28;20059;-79
2022/01/08 07:04:21;;;;;;;21.15;4.22;;;5.20;99.90;;;;;;4999634;28;20053;-78
2022/01/08 07:06:49;;;;;;;;;;;5.20;99.90;;;;;;4988666;28;20054;-79
2022/01/08 07:09:16;;;;;;;25.67;4.60;;;5.20;99.90;;;;;;4989129;28;19922;-76
2022/01/08 07:11:44;;;;;;;18.58;4.38;;;5.20;99.90;;;;;;4987542;28;20050;-78
2022/01/08 07:14:13;;;;;;;23.33;4.15;;;5.30;99.90;;;;;;4988199;28;20054;-80
2022/01/08 07:16:40;;;;;;;26.35;4.95;;;5.30;99.90;;;;;;4988021;28;20065;-78
2022/01/08 07:19:08;;;;;;;19.85;4.60;;;5.40;99.90;;;;;;4971912;28;20053;-78
2022/01/08 07:21:37;;;;;;;30.15;5.10;;;5.40;99.90;;;;;;4989078;28;20053;-78
2022/01/08 07:24:05;;;;;;;22.58;5.07;;;5.40;99.90;;;;;;4971691;28;20057;-80
2022/01/08 07:26:32;;;;;;;29.23;5.07;;;5.50;99.90;;;;;;4989058;28;20054;-75
2022/01/08 07:29:00;;;;;;;24.73;5.57;;;5.60;99.90;;;;;;4956041;28;20065;-79
2022/01/08 07:31:28;;;;;;;32.67;6.38;;;5.60;99.90;;;;;;4988287;28;20554;-82
2022/01/08 07:33:55;;;;;;;27.00;5.68;;;5.50;99.90;;;;;;4995865;28;20045;-78
2022/01/08 07:36:23;;;;;;;29.10;6.18;;;5.60;99.90;;;;;;5006940;28;20045;-77
2022/01/08 07:38:51;;;;;;;36.92;6.53;;;5.60;99.90;;;;;;5006257;28;20048;-80
2022/01/08 07:41:19;;;;;;;30.77;6.78;;;5.50;99.90;;;;;;5003433;28;20056;-76
2022/01/08 07:43:47;;;;;;;33.03;5.97;;;5.70;99.90;;;;;;5006632;28;20053;-78
2022/01/08 07:46:15;;;;;;;36.85;7.15;;;5.70;99.90;;;;;;5007666;28;20049;-79
2022/01/08 07:48:43;;;;;;;30.33;6.28;;;5.60;99.90;;;;;;5001908;28;20517;-76
2022/01/08 07:51:11;;;;;;;29.80;5.78;;;5.70;99.90;;;;;;4998594;28;20390;-79
2022/01/08 07:53:39;;;;;;;29.65;6.25;;;5.80;99.90;;;;;;4998167;28;20037;-81
2022/01/08 07:56:07;;;;;;;29.35;6.30;;;5.80;99.90;;;;;;5000540;28;20057;-79
2022/01/08 07:58:35;;;;;;;19.52;5.18;;;5.80;99.90;;;;;;5003257;28;20038;-77
2022/01/08 08:01:03;;;;;;;37.45;6.47;;;5.80;99.90;;;;;;4996611;28;20050;-80
2022/01/08 08:03:31;;;;;;;29.67;5.65;;;5.90;99.90;;;;;;4996844;28;20046;-72
2022/01/08 08:05:59;;;;;;;30.25;7.00;;;5.90;99.90;;;;;;4992709;28;20482;-76
2022/01/08 08:08:27;;;;;;;30.88;6.32;;;5.90;99.90;;;;;;5006543;28;20045;-78
2022/01/08 08:10:55;;;;;;;30.52;6.07;;;6.00;99.90;;;;;;5005968;28;20399;-74
2022/01/08 08:13:23;;;;;;;30.33;6.72;;;6.00;99.90;;;;;;4989797;28;20104;-74
2022/01/08 08:15:51;;;;;;;29.58;6.43;;;6.00;99.90;;;;;;5003387;28;20153;-80
2022/01/08 08:18:19;;;;;;;39.58;6.47;;;6.10;99.90;;;;;;5004573;28;20046;-81
2022/01/08 08:20:47;;;;;;;22.38;6.38;;;6.10;99.90;;;;;;4996572;28;20042;-76
2022/01/08 08:23:14;;;;;;;27.35;6.07;;;6.10;99.90;;;;;;4994112;28;20046;-81
2022/01/08 08:25:44;;;;;;;44.08;6.70;;;6.10;99.90;;;;;;4971903;28;20054;-78
2022/01/08 08:28:12;;;;;;;37.90;6.95;;;6.20;99.90;;;;;;4999254;28;20065;-78
2022/01/08 08:30:40;;;;;;;34.53;6.55;;;6.20;99.90;;;;;;5001534;28;20080;-82
2022/01/08 08:33:08;;;;;;;44.42;6.85;;;6.20;99.90;;;;;;4987189;28;20052;-81
2022/01/08 08:35:35;;;;;;;45.00;6.43;;;6.30;99.90;;;;;;5003880;28;20052;-80
2022/01/08 08:38:03;;;;;;;33.95;6.57;;;6.50;99.90;;;;;;5001885;28;20058;-79
2022/01/08 08:40:31;;;;;;;39.67;7.28;;;6.30;99.90;;;;;;4995046;28;20061;-81
2022/01/08 08:42:58;;;;;;;32.80;5.85;;;6.40;99.90;;;;;;5005003;28;20550;-81
2022/01/08 08:45:26;;;;;;;34.20;5.53;;;6.50;99.90;;;;;;5000829;28;20068;-80
2022/01/08 08:47:56;;;;;;;34.85;5.45;;;6.50;99.90;;;;;;5004858;28;20042;-78
2022/01/08 08:50:24;;;;;;;32.80;4.30;;;6.60;99.90;;;;;;5005674;28;20058;-78
2022/01/08 08:52:54;;;;;;;35.85;6.05;;;6.60;99.90;;;;;;5005623;28;20057;-77
2022/01/08 08:55:21;;;;;;;37.30;5.78;;;6.70;99.90;;;;;;5007213;28;20388;-76
2022/01/08 08:57:49;;;;;;;36.95;5.72;;;6.80;99.90;;;;;;5006329;28;20057;-76
2022/01/08 09:00:19;;;;;;;45.08;5.82;;;6.90;99.90;;;;;;5000651;28;20043;-78
2022/01/08 09:02:47;;;;;;;38.03;5.07;;;6.90;99.90;;;;;;4998550;28;20046;-78
2022/01/08 09:05:15;;;;;;;35.20;5.75;;;7.00;99.90;;;;;;4986623;28;20054;-76
2022/01/08 09:07:42;;;;;;;35.30;5.25;;;7.00;99.90;;;;;;4968926;28;20058;-78
2022/01/08 09:10:11;;;;;;;45.83;5.55;;;7.10;99.90;;;;;;4984057;28;20069;-75
2022/01/08 09:12:42;;;;;;;36.25;5.70;;;7.10;99.90;;;;;;5004605;28;20053;-80
2022/01/08 09:15:10;;;;;;;49.10;5.95;;;7.20;99.90;;;;;;5004359;28;20057;-79
2022/01/08 09:17:39;;;;;;;43.35;5.75;;;7.30;99.90;;;;;;4991845;28;20062;-77
2022/01/08 09:20:10;;;;;;;33.75;5.18;;;7.40;99.90;;;;;;4985898;28;20050;-78
2022/01/08 09:22:38;;;;;;;48.22;6.00;;;7.50;99.90;;;;;;4987151;28;20050;-81
2022/01/08 09:25:06;;;;;;;46.05;6.15;;;7.60;99.90;;;;;;4984865;28;20411;-79
2022/01/08 09:27:34;;;;;;;51.20;5.72;;;7.70;99.90;;;;;;4986117;28;20061;-81
2022/01/08 09:30:04;;;;;;;43.55;5.93;;;7.80;99.90;;;;;;4985570;28;20150;-78
2022/01/08 09:32:32;;;;;;;52.83;6.65;;;7.80;99.90;;;;;;4985656;28;20487;-78
2022/01/08 09:35:01;;;;;;;40.75;5.00;;;7.90;99.90;;;;;;4988955;28;20042;-78
2022/01/08 09:37:28;;;;;;;;;;;8.00;99.90;;;;;;5004972;28;20054;-81
2022/01/08 09:39:56;;;;;;;47.80;5.65;;;8.10;99.90;;;;;;5003190;28;19928;-79
2022/01/08 09:42:24;;;;;;;42.35;5.85;;;8.10;99.90;;;;;;4972078;28;20054;-83
2022/01/08 09:44:52;;;;;;;52.33;6.15;;;8.10;99.90;;;;;;5005142;28;20050;-77
2022/01/08 09:47:21;;;;;;;41.08;5.45;;;8.10;99.90;;;;;;5006284;28;20084;-78
2022/01/08 09:49:50;;;;;;;47.42;5.32;;;8.20;99.90;;;;;;5004913;28;20509;-78
2022/01/08 09:52:18;;;;;;;32.28;4.85;;;8.30;99.90;;;;;;5004533;28;20061;-78
2022/01/08 09:54:45;;;;;;;39.15;4.63;;;8.30;99.90;;;;;;4979248;28;20038;-82
2022/01/08 09:57:13;;;;;;;50.35;5.53;;;8.40;99.90;;;;;;4986653;28;20061;-77
2022/01/08 09:59:43;;;;;;;41.00;4.97;;;8.40;99.90;;;;;;4986051;28;20058;-82
2022/01/08 10:02:11;;;;;;;34.85;5.28;;;8.50;99.90;;;;;;4985097;28;20069;-74
2022/01/08 10:04:41;;;;;;;33.22;4.50;;;8.50;99.90;;;;;;4986386;28;20061;-74
2022/01/08 10:07:25;;;;;;;41.33;4.45;;;8.60;99.90;;;;;;4985531;28;20054;-77
2022/01/08 10:10:13;;;;;;;33.97;3.65;;;8.60;99.90;;;;;;4986832;28;20495;-80
2022/01/08 10:12:50;;;;;;;33.65;4.32;;;8.60;99.90;;;;;;4985059;28;20043;-80
2022/01/08 10:18:31;;;;;;;38.65;4.38;;;8.70;99.90;;;;;;4985288;28;20046;-79
2022/01/08 10:21:02;;;;;;;30.63;3.83;;;8.70;99.90;;;;;;4985330;28;20054;-77
2022/01/08 10:23:32;;;;;;;33.00;3.72;;;8.70;99.90;;;;;;4988747;28;20522;-79
2022/01/08 10:26:07;;;;;;;28.50;3.20;;;8.70;99.90;;;;;;4989103;28;20046;-76
2022/01/08 10:28:41;;;;;;;30.45;3.60;;;8.70;99.90;;;;;;4990438;28;20399;-73
2022/01/08 10:31:18;;;;;;;19.10;2.60;;;8.70;99.90;;;;;;4988595;28;20074;-74
2022/01/08 10:33:51;;;;;;;22.73;2.70;;;8.80;99.90;;;;;;4990358;28;20376;-78
2022/01/08 10:36:25;;;;;;;23.27;2.97;;;8.70;99.90;;;;;;4990212;28;20054;-79
2022/01/08 10:38:55;;;;;;;26.02;2.78;;;8.80;99.90;;;;;;4988997;28;20065;-78
2022/01/08 10:41:24;;;;;;;23.55;2.60;;;8.80;99.90;;;;;;4988728;28;20512;-78
2022/01/08 10:44:07;;;;;;;19.70;3.05;;;8.80;99.90;;;;;;4988447;28;20050;-83
2022/01/08 10:46:36;;;;;;;15.73;2.35;;;8.80;99.90;;;;;;4984723;28;20659;-81
2022/01/08 10:49:05;;;;;;;18.23;2.42;;;8.80;99.90;;;;;;4976373;28;20558;-81
2022/01/08 10:51:33;;;;;;;;;;;8.80;99.90;;;;;;4999875;28;20581;-79
2022/01/08 10:54:08;;;;;;;13.18;1.85;;;8.80;99.90;;;;;;4981140;28;19922;-78
2022/01/08 10:56:44;;;;;;;16.67;2.63;;;8.80;99.90;;;;;;4970718;28;20438;-77
2022/01/08 10:59:17;;;;;;;17.02;2.33;;;8.80;99.90;;;;;;4978549;28;20062;-80
2022/01/08 11:02:00;;;;;;;17.73;1.95;;;8.90;99.90;;;;;;4971154;28;20046;-78
2022/01/08 11:04:37;;;;;;;17.20;2.42;;;8.90;99.90;;;;;;4989903;28;20050;-80
2022/01/08 11:07:08;;;;;;;20.13;2.83;;;8.90;99.90;;;;;;4985633;28;20049;-88
2022/01/08 11:09:38;;;;;;;22.80;3.00;;;8.90;99.90;;;;;;4990101;28;20497;-75
2022/01/08 11:12:12;;;;;;;28.40;3.40;;;8.90;99.90;;;;;;4991043;28;20050;-78
2022/01/08 11:17:20;;;;;;;23.00;3.10;;;9.00;99.90;;;;;;4994167;28;20426;-76
2022/01/08 11:19:55;;;;;;;21.48;2.58;;;9.00;99.90;;;;;;4984081;28;20055;-78
2022/01/08 11:22:25;;;;;;;22.23;3.10;;;9.10;99.90;;;;;;4971298;28;20617;-73
2022/01/08 11:24:56;;;;;;;21.65;2.53;;;9.10;99.90;;;;;;4998465;28;20231;-75
2022/01/08 11:27:44;;;;;;;17.65;2.85;;;9.10;99.90;;;;;;4983567;28;20053;-77
2022/01/08 11:30:24;;;;;;;14.82;2.50;;;9.10;99.90;;;;;;4995946;28;20037;-77
2022/01/08 11:32:56;;;;;;;16.35;2.63;;;9.20;99.90;;;;;;5006565;28;20477;-75
2022/01/08 11:35:36;;;;;;;29.77;2.92;;;9.20;99.90;;;;;;4986260;28;20050;-78
2022/01/08 11:38:07;;;;;;;22.63;3.00;;;9.20;99.90;;;;;;4982317;28;20076;-78
2022/01/08 11:40:37;;;;;;;20.58;2.53;;;9.20;99.90;;;;;;4984541;28;20054;-79
2022/01/08 11:43:08;;;;;;;25.30;2.75;;;9.20;99.90;;;;;;4995587;28;20050;-77
2022/01/08 11:45:43;;;;;;;25.40;2.97;;;9.20;99.90;;;;;;5006718;28;20049;-76
2022/01/08 11:48:12;;;;;;;19.90;3.03;;;9.30;99.90;;;;;;4984843;28;20064;-76
2022/01/08 11:50:50;;;;;;;18.73;2.90;;;9.30;99.90;;;;;;5006483;28;20049;-78
2022/01/08 11:53:23;;;;;;;11.25;1.83;;;9.30;99.90;;;;;;4986995;28;20062;-77
2022/01/08 11:55:57;;;;;;;15.73;2.17;;;9.30;99.90;;;;;;4969207;28;20050;-74
2022/01/08 11:58:35;;;;;;;21.80;2.38;;;9.30;99.90;;;;;;4981669;28;20043;-78
2022/01/08 12:01:13;;;;;;;22.38;2.70;;;9.40;99.90;;;;;;4999030;28;20057;-77
2022/01/08 12:03:52;;;;;;;15.43;2.65;;;9.40;99.90;;;;;;5004237;28;20506;-78
2022/01/08 12:09:08;;;;;;;12.20;1.75;;;9.40;99.90;;;;;;4981968;28;20043;-75
2022/01/08 12:11:36;;;;;;;14.02;1.58;;;9.40;99.90;;;;;;4999632;28;20046;-76
2022/01/08 12:14:12;;;;;;;10.18;1.83;;;9.40;99.90;;;;;;4998498;28;20050;-79
2022/01/08 12:16:46;;;;;;;13.00;1.95;;;9.40;99.90;;;;;;5002226;28;20072;-77
2022/01/08 12:19:36;;;;;;;12.15;1.42;;;9.40;99.90;;;;;;5007792;28;20048;-77
2022/01/08 12:22:16;;;;;;;13.35;1.50;;;9.40;99.90;;;;;;5007504;28;20073;-78
2022/01/08 12:24:45;;;;;;;9.75;1.52;;;9.40;99.90;;;;;;5006075;28;20065;-80
2022/01/08 12:27:38;;;;;;;10.02;1.52;;;9.50;99.90;;;;;;5006573;28;20491;-77
2022/01/08 12:30:18;;;;;;;6.85;1.10;;;9.50;99.90;;;;;;5007874;28;20038;-79
2022/01/08 12:32:52;;;;;;;10.68;1.25;;;9.50;99.90;;;;;;5005614;28;20049;-79
2022/01/08 12:35:37;;;;;;;15.00;1.60;;;9.50;99.90;;;;;;4987921;28;20042;-77
2022/01/08 12:38:21;;;;;;;12.68;1.50;;;9.50;99.90;;;;;;4986667;28;20067;-79
2022/01/08 12:40:49;;;;;;;8.77;1.20;;;9.50;99.90;;;;;;4986682;28;20053;-77
2022/01/08 12:43:35;;;;;;;9.07;1.10;;;9.50;99.90;;;;;;5000402;28;20490;-78
2022/01/08 12:46:24;;;;;;;9.30;1.13;;;9.50;99.90;;;;;;5000695;28;20061;-78
2022/01/08 12:49:06;;;;;;;5.57;1.05;;;9.50;99.90;;;;;;4989869;28;20038;-77
2022/01/08 12:51:41;;;;;;;6.32;0.95;;;9.50;99.90;;;;;;5001945;28;20054;-74
2022/01/08 12:54:09;;;;;;;6.65;0.85;;;9.50;99.90;;;;;;5001241;28;20414;-82
2022/01/08 12:56:49;;;;;;;8.10;1.10;;;9.50;99.90;;;;;;5006491;28;20042;-74
2022/01/08 12:59:18;;;;;;;6.72;1.38;;;9.50;99.90;;;;;;4999796;28;20069;-76
2022/01/08 13:01:50;;;;;;;9.80;1.52;;;9.50;99.90;;;;;;5005409;28;20415;-79
2022/01/08 13:04:21;;;;;;;10.20;1.63;;;9.50;99.90;;;;;;4991281;28;20051;-77
2022/01/08 13:06:50;;;;;;;8.45;1.52;;;9.50;99.90;;;;;;5006267;28;20038;-76
2022/01/08 13:09:18;;;;;;;5.00;1.38;;;9.50;99.90;;;;;;5005713;28;20500;-80
2022/01/08 13:11:46;;;;;;;5.82;1.40;;;9.50;99.90;;;;;;5006884;28;20041;-76
2022/01/08 13:14:21;;;;;;;7.35;1.58;;;9.40;99.90;;;;;;5005391;28;20253;-79
2022/01/08 13:16:52;;;;;;;7.45;1.20;;;9.50;99.90;;;;;;5004606;28;20418;-76
2022/01/08 13:19:27;;;;;;;5.05;1.00;;;9.50;99.90;;;;;;5006727;28;20423;-79
2022/01/08 13:21:59;;;;;;;5.20;0.80;;;9.40;99.90;;;;;;5005862;28;20058;-80
2022/01/08 13:24:28;;;;;;;5.75;1.27;;;9.40;99.90;;;;;;5005377;28;20483;-79
2022/01/08 13:27:02;;;;;;;8.77;1.00;;;9.40;99.90;;;;;;5006558;28;20050;-78
2022/01/08 13:29:34;;;;;;;7.47;1.08;;;9.40;99.90;;;;;;4985357;28;20046;-82
2022/01/08 13:32:16;;;;;;;10.98;1.30;;;9.30;99.90;;;;;;4967795;28;20714;-76
2022/01/08 13:34:55;;;;;;;5.22;1.05;;;9.40;99.90;;;;;;4982114;28;20038;-75
2022/01/08 13:37:28;;;;;;;8.98;1.40;;;9.40;99.90;;;;;;4987579;28;20131;-75
2022/01/08 13:40:01;;;;;;;6.63;1.00;;;9.40;99.90;;;;;;4967903;28;20145;-73